Mosquero, NM

2:07 PM MST on January 30, 2015 (GMT -0700)
Tucumcari Municipal | Change Station
CLOSE
Current Station
Airport
Location: Tucumcari,
Elevation: 4065 ft
Nearby Weather Stations
Active Advisory: Winter Weather Advisory Active Notice: Public Information Statement

Elev 4065 ft 35.18 °N, 103.60 °W | Updated 14 minutes ago

Snow
Snow
36 °F
Feels Like 36 °F
N
0
Wind Variable Wind from North

Today
High -- | Low -- °F
--% Chance of Precip.
Yesterday
High -- | Low -- °F
Precip. -- in
6:56 AM 5:19 PM
Waxing Gibbous, 85% visible
Pressure 30.27 in
Visibility 7.0 miles
Clouds Few 500 ft
Mostly Cloudy 2300 ft
Overcast 3400 ft
Dew Point 34 °F
Humidity 93%
Rainfall 0.05 in
Snow Depth Not available.
UV 1 out of 12
Pollen .90 out of 12
Air Quality Not available.
Flu Activity Not available.
METAR KTCC 302053Z AUTO 00000KT 7SM -RA FEW005 BKN023 OVC034 02/01 A3025 RMK AO2 SLP249 P0000 60003 T00220011 56034

More Conditions Fewer Conditions

Pressure 30.27 in
Visibility 7.0 miles
Clouds Few 500 ft
Mostly Cloudy 2300 ft
Overcast 3400 ft
Dew Point 34 °F
Humidity 93%
Rainfall 0.05 in
Snow Depth Not available.
UV 1 out of 12
Pollen .90 out of 12
Air Quality Not available.
Flu Activity Not available.
METAR KTCC 302053Z AUTO 00000KT 7SM -RA FEW005 BKN023 OVC034 02/01 A3025 RMK AO2 SLP249 P0000 60003 T00220011 56034

More Conditions Fewer Conditions

Nowcast | as of 12:03 PM MST on January 30, 2015

Through 2 PM MST...areas of rain and snow will continue across eastern New Mexico. Snow accumulations will be mostly confined along Interstate 25 from Las Vegas to Raton. New snow accumulations up to one inch are possible along the plains and Highlands interface. Elsewhere across the eastern plains...mostly rain is expected. Rain amounts will generally range from a trace to a tenth of an inch. For the latest Road conditions visit N M roads dot com or dial 5 1 1.

×

10-Day Weather Forecast

Almanac

Astronomy

Jan. 30, 2015 Rise Set
Actual Time
Civil Twilight
Nautical Twilight
Astronomical Twilight
Moon
Length of Visible Light
Length of Day
Tomorrow will be .
, % of the Moon is Illuminated

Today's Extremes

State Highs State Lows

Community

WunderPhotos

Upload Photos

1,791,894 photos uploaded!

WunderBlogs® & News

Nearby

Air Quality

  Air Quality AQ Index Pollutant
Not available.

Snow Depth

Station Depth Elevation

Earthquake Activity

City Distance Mag. Time & Date
Minimum magnitude displayed is 2.5.

Coastal Water Temperatures

Place Temperature

Nearby Weather Stations